Gearhart, Oregon
Current Conditions -  °F | °C
As of 5:55 PM on Friday 19 Dec 2014 (Local Time) from KAST Reporting Station
Broken Clouds Broken Clouds  
Wind Chill: 43°   Ceiling: 6500
Heat Index: 46°   Visibility: 10mi
Dew Point: 43°   Wind: 6mph
Humidity: 89%   Direction: 120°ESE
Pressure: 29.92"   Gusts: NA
Location:  45.8905°N, 123.667°W
Report Text: KAST 200155Z AUTO 12005KT 10SM SCT044 BKN065 08/06 A2992 RMK AO2 RAB15E33 CIG 050 RWY 08 SLP132 P0000 T00780061
Loading
Personal Weather Stations






























Interactive Weather Map New forecast layout! Learn more

10-Day Weather Forecast

Advertisements
Track Severe Weather on mobile